createdAt,value
2019-02-10T00:00:40.767Z,7.93
2019-02-10T00:03:14.137Z,8.50
2019-02-10T00:05:44.194Z,8.97
2019-02-10T00:08:13.832Z,7.60
2019-02-10T00:10:44.991Z,7.03
2019-02-10T00:13:28.184Z,7.30
2019-02-10T00:16:05.078Z,7.07
2019-02-10T00:18:34.525Z,7.37
2019-02-10T00:21:03.791Z,6.80
2019-02-10T00:23:33.660Z,7.23
2019-02-10T00:26:04.451Z,8.70
2019-02-10T00:28:33.729Z,8.67
2019-02-10T00:31:05.083Z,8.63
2019-02-10T00:33:34.917Z,9.20
2019-02-10T00:36:04.132Z,8.73
2019-02-10T00:38:34.114Z,8.23
2019-02-10T00:41:03.783Z,7.70
2019-02-10T00:43:33.353Z,7.73
2019-02-10T00:46:02.555Z,7.20
2019-02-10T00:48:32.200Z,6.70
2019-02-10T00:51:06.749Z,6.17
2019-02-10T00:53:36.384Z,5.40
2019-02-10T00:56:05.718Z,5.00
2019-02-10T00:58:34.938Z,5.07
2019-02-10T01:01:04.795Z,5.90
2019-02-10T01:03:34.108Z,5.60
2019-02-10T01:06:04.314Z,5.53
2019-02-10T01:08:35.779Z,5.40
2019-02-10T01:11:05.206Z,6.17
2019-02-10T01:13:34.440Z,6.00
2019-02-10T01:16:03.668Z,5.53
2019-02-10T01:18:33.238Z,5.40
2019-02-10T01:21:02.754Z,5.37
2019-02-10T01:23:32.018Z,5.37
2019-02-10T01:26:03.538Z,5.17
2019-02-10T01:28:36.045Z,5.30
2019-02-10T01:31:06.105Z,5.47
2019-02-10T01:33:42.676Z,5.50
2019-02-10T01:36:12.888Z,5.17
2019-02-10T01:38:42.195Z,5.43
2019-02-10T01:41:13.051Z,5.67
2019-02-10T01:43:42.758Z,6.07
2019-02-10T01:46:11.968Z,5.73
2019-02-10T01:48:48.647Z,5.40
2019-02-10T01:51:18.945Z,6.03
2019-02-10T01:53:48.511Z,5.83
2019-02-10T01:56:18.109Z,6.07
2019-02-10T01:58:48.141Z,5.20
2019-02-10T02:01:18.432Z,5.93
2019-02-10T02:03:48.033Z,6.13
2019-02-10T02:06:17.288Z,5.60
2019-02-10T02:08:46.496Z,5.90
2019-02-10T02:11:15.771Z,6.10
2019-02-10T02:13:49.316Z,5.80
2019-02-10T02:16:18.583Z,6.33
2019-02-10T02:18:47.886Z,5.67
2019-02-10T02:21:18.881Z,5.83
2019-02-10T02:23:50.071Z,5.93
2019-02-10T02:26:21.086Z,5.47
2019-02-10T02:28:50.381Z,5.67
2019-02-10T02:31:19.968Z,5.40
2019-02-10T02:33:49.205Z,5.70
2019-02-10T02:36:18.916Z,5.33
2019-02-10T02:38:49.635Z,5.20
2019-02-10T02:41:18.887Z,5.57
2019-02-10T02:43:48.106Z,5.57
2019-02-10T02:46:19.600Z,5.83
2019-02-10T02:48:48.892Z,5.80
2019-02-10T02:51:18.129Z,5.90
2019-02-10T02:53:48.951Z,6.37
2019-02-10T02:56:18.317Z,6.50
2019-02-10T02:58:47.356Z,6.10
2019-02-10T03:01:16.918Z,6.27
2019-02-10T03:03:46.161Z,5.67
2019-02-10T03:06:16.293Z,5.83
2019-02-10T03:08:46.865Z,6.07
2019-02-10T03:11:16.409Z,6.30
2019-02-10T03:13:45.644Z,6.03
2019-02-10T03:16:14.900Z,6.10
2019-02-10T03:18:51.920Z,5.77
2019-02-10T03:21:15.132Z,5.70
2019-02-10T03:23:44.734Z,5.87
2019-02-10T03:26:13.987Z,5.70
2019-02-10T03:28:47.798Z,5.90
2019-02-10T03:31:17.005Z,6.10
2019-02-10T03:33:46.275Z,5.73
2019-02-10T03:36:15.660Z,5.67
2019-02-10T03:38:45.701Z,5.53
2019-02-10T03:41:16.934Z,6.10
2019-02-10T03:43:46.183Z,5.07
2019-02-10T03:46:16.526Z,5.43
2019-02-10T03:48:47.155Z,5.20
2019-02-10T03:51:16.689Z,4.87
2019-02-10T03:53:46.202Z,4.83
2019-02-10T03:56:15.548Z,5.13
2019-02-10T03:58:44.768Z,4.90
2019-02-10T04:01:14.007Z,4.60
2019-02-10T04:03:47.568Z,5.00
2019-02-10T04:06:17.073Z,4.30
2019-02-10T04:08:47.396Z,5.00
2019-02-10T04:11:17.571Z,4.80
2019-02-10T04:13:47.823Z,4.40
2019-02-10T04:16:21.586Z,4.50
2019-02-10T04:18:51.062Z,4.50
2019-02-10T04:21:23.309Z,4.37
2019-02-10T04:23:52.817Z,4.50
2019-02-10T04:26:22.339Z,4.83
2019-02-10T04:28:54.311Z,4.20
2019-02-10T04:31:23.928Z,4.47
2019-02-10T04:33:57.425Z,4.50
2019-02-10T04:36:26.934Z,4.33
2019-02-10T04:38:57.335Z,4.57
2019-02-10T04:41:27.630Z,4.40
2019-02-10T04:43:58.313Z,4.30
2019-02-10T04:46:27.555Z,4.47
2019-02-10T04:48:57.833Z,4.60
2019-02-10T04:51:28.680Z,4.30
2019-02-10T04:54:02.582Z,4.90
2019-02-10T04:56:43.440Z,5.00
2019-02-10T04:59:12.696Z,5.43
2019-02-10T05:01:41.948Z,5.37
2019-02-10T05:04:11.225Z,5.00
2019-02-10T05:06:40.440Z,5.30
2019-02-10T05:09:09.678Z,4.93
2019-02-10T05:11:41.250Z,5.20
2019-02-10T05:14:11.794Z,5.43
2019-02-10T05:16:41.368Z,5.37
2019-02-10T05:19:12.879Z,5.13
2019-02-10T05:21:42.190Z,5.37
2019-02-10T05:24:11.444Z,5.33
2019-02-10T05:26:40.649Z,5.10
2019-02-10T05:29:12.048Z,5.50
2019-02-10T05:31:41.290Z,5.07
2019-02-10T05:34:10.545Z,5.70
2019-02-10T05:36:39.757Z,5.40
2019-02-10T05:39:12.603Z,5.20
2019-02-10T05:41:41.820Z,5.00
2019-02-10T05:44:11.565Z,4.90
2019-02-10T05:46:41.656Z,4.40
2019-02-10T05:49:10.917Z,3.87
2019-02-10T05:51:40.177Z,4.50
2019-02-10T05:54:09.415Z,4.37
2019-02-10T05:56:38.630Z,4.00
2019-02-10T05:59:09.317Z,4.50
2019-02-10T06:02:00.888Z,4.00
2019-02-10T06:04:30.964Z,3.93
2019-02-10T06:07:02.714Z,4.70
2019-02-10T06:09:33.189Z,4.50
2019-02-10T06:12:02.395Z,4.27
2019-02-10T06:14:31.989Z,4.30
2019-02-10T06:17:03.972Z,4.77
2019-02-10T06:19:34.023Z,4.70
2019-02-10T06:22:03.524Z,4.37
2019-02-10T06:24:33.079Z,4.50
2019-02-10T06:27:02.295Z,4.70
2019-02-10T06:29:31.508Z,4.90
2019-02-10T06:32:02.356Z,5.00
2019-02-10T06:34:32.933Z,5.17
2019-02-10T06:37:02.945Z,5.53
2019-02-10T06:39:32.955Z,5.63
2019-02-10T06:42:02.166Z,5.40
2019-02-10T06:44:33.107Z,5.30
2019-02-10T06:47:02.626Z,5.63
2019-02-10T06:49:32.394Z,5.40
2019-02-10T06:52:02.014Z,5.27
2019-02-10T06:54:37.020Z,4.90
2019-02-10T06:57:07.837Z,4.90
2019-02-10T06:59:46.067Z,4.80
2019-02-10T07:02:49.250Z,4.90
2019-02-10T07:05:19.564Z,4.50
2019-02-10T07:07:49.469Z,4.27
2019-02-10T07:10:18.986Z,4.47
2019-02-10T07:12:53.686Z,4.77
2019-02-10T07:15:59.049Z,4.37
2019-02-10T07:19:05.111Z,4.53
2019-02-10T07:21:41.883Z,4.50
2019-02-10T07:24:41.888Z,4.53
2019-02-10T07:27:19.096Z,4.90
2019-02-10T07:30:15.552Z,4.57
2019-02-10T07:32:49.454Z,4.93
2019-02-10T07:36:01.618Z,4.50
2019-02-10T07:38:47.336Z,4.53
2019-02-10T07:42:04.153Z,4.63
2019-02-10T07:44:46.812Z,4.30
2019-02-10T07:47:47.564Z,4.30
2019-02-10T07:50:59.425Z,4.70
2019-02-10T07:54:12.689Z,4.50
2019-02-10T07:57:01.178Z,5.07
2019-02-10T07:59:36.565Z,5.40
2019-02-10T08:02:55.506Z,5.67
2019-02-10T08:05:54.998Z,5.57
2019-02-10T08:09:11.792Z,6.40
2019-02-10T08:12:11.720Z,7.00
2019-02-10T08:14:46.991Z,6.83
2019-02-10T08:17:57.266Z,6.77
2019-02-10T08:20:52.831Z,6.13
2019-02-10T08:23:56.246Z,6.03
2019-02-10T08:26:55.973Z,6.40
2019-02-10T08:30:02.673Z,5.93
2019-02-10T08:33:07.350Z,6.03
2019-02-10T08:36:14.340Z,5.33
2019-02-10T08:39:13.361Z,4.97
2019-02-10T08:42:07.079Z,5.67
2019-02-10T08:45:13.066Z,5.57
2019-02-10T08:48:13.422Z,6.00
2019-02-10T08:51:13.336Z,6.13
2019-02-10T08:53:45.102Z,6.00
2019-02-10T08:56:14.618Z,5.83
2019-02-10T08:58:45.180Z,5.50
2019-02-10T09:01:14.429Z,5.40
2019-02-10T09:03:43.702Z,5.30
2019-02-10T09:06:13.281Z,5.70
2019-02-10T09:08:42.568Z,6.00
2019-02-10T09:11:11.823Z,6.80
2019-02-10T09:13:41.521Z,5.97
2019-02-10T09:16:10.586Z,7.00
2019-02-10T09:18:49.121Z,8.33
2019-02-10T09:21:20.767Z,7.00
2019-02-10T09:23:50.028Z,7.23
2019-02-10T09:26:19.915Z,7.17
2019-02-10T09:28:53.775Z,8.10
2019-02-10T09:31:23.188Z,7.70
2019-02-10T09:33:53.284Z,10.03
2019-02-10T09:36:22.802Z,8.37
2019-02-10T09:38:52.087Z,7.20
2019-02-10T09:41:25.055Z,7.33
2019-02-10T09:43:54.614Z,7.10
2019-02-10T09:46:24.006Z,7.20
2019-02-10T09:48:54.473Z,6.60
2019-02-10T09:51:28.925Z,6.43
2019-02-10T09:53:59.296Z,6.73
2019-02-10T09:56:29.918Z,6.70
2019-02-10T09:58:59.156Z,6.63
2019-02-10T10:01:28.434Z,6.50
2019-02-10T10:03:57.721Z,6.47
2019-02-10T10:06:26.944Z,6.40
2019-02-10T10:08:56.450Z,6.30
2019-02-10T10:11:25.702Z,6.30
2019-02-10T10:13:55.273Z,6.97
2019-02-10T10:16:27.369Z,6.97
2019-02-10T10:18:56.996Z,6.80
2019-02-10T10:21:27.394Z,6.40
2019-02-10T10:23:59.072Z,6.30
2019-02-10T10:26:28.329Z,6.60
2019-02-10T10:28:58.379Z,6.13
2019-02-10T10:31:27.628Z,6.40
2019-02-10T10:33:58.326Z,5.77
2019-02-10T10:36:28.173Z,6.47
2019-02-10T10:38:57.451Z,6.20
2019-02-10T10:41:27.482Z,6.77
2019-02-10T10:43:56.728Z,6.47
2019-02-10T10:46:25.942Z,6.57
2019-02-10T10:48:57.925Z,6.43
2019-02-10T10:51:27.407Z,6.47
2019-02-10T10:53:58.063Z,6.40
2019-02-10T10:56:27.283Z,6.17
2019-02-10T10:58:57.198Z,6.67
2019-02-10T11:01:26.428Z,7.10
2019-02-10T11:03:55.688Z,6.83
2019-02-10T11:06:25.238Z,6.97
2019-02-10T11:08:56.547Z,6.90
2019-02-10T11:11:28.011Z,6.73
2019-02-10T11:13:57.292Z,6.83
2019-02-10T11:16:26.984Z,6.70
2019-02-10T11:18:56.245Z,6.20
2019-02-10T11:21:27.638Z,5.63
2019-02-10T11:24:00.083Z,5.83
2019-02-10T11:26:30.105Z,5.43
2019-02-10T11:28:59.389Z,6.00
2019-02-10T11:31:28.630Z,5.40
2019-02-10T11:33:59.980Z,5.43
2019-02-10T11:36:29.641Z,5.20
2019-02-10T11:38:59.681Z,5.90
2019-02-10T11:41:28.907Z,5.10
2019-02-10T11:43:58.145Z,4.87
2019-02-10T11:46:27.654Z,4.57
2019-02-10T11:48:58.136Z,4.90
2019-02-10T11:51:27.364Z,4.60
2019-02-10T11:54:04.302Z,4.03
2019-02-10T11:56:35.022Z,4.10
2019-02-10T11:59:04.891Z,3.80
2019-02-10T12:01:36.651Z,4.23
2019-02-10T12:04:05.997Z,4.03
2019-02-10T12:06:36.638Z,3.80
2019-02-10T12:09:08.123Z,3.67
2019-02-10T12:11:37.344Z,3.67
2019-02-10T12:14:06.863Z,3.87
2019-02-10T12:16:39.670Z,3.87
2019-02-10T12:19:08.885Z,3.97
2019-02-10T12:21:37.980Z,4.10
2019-02-10T12:24:08.244Z,4.53
2019-02-10T12:26:37.784Z,4.30
2019-02-10T12:29:06.996Z,4.10
2019-02-10T12:31:42.649Z,3.90
2019-02-10T12:34:14.771Z,3.60
2019-02-10T12:36:44.029Z,4.07
2019-02-10T12:39:15.688Z,4.00
2019-02-10T12:41:46.311Z,4.23
2019-02-10T12:44:15.568Z,4.10
2019-02-10T12:46:44.819Z,3.83
2019-02-10T12:49:14.417Z,3.73
2019-02-10T12:51:43.666Z,4.43
2019-02-10T12:54:13.158Z,4.30
2019-02-10T12:56:42.336Z,4.53
2019-02-10T12:59:11.584Z,4.80
2019-02-10T13:01:42.018Z,4.30
2019-02-10T13:04:11.234Z,4.77
2019-02-10T13:06:40.510Z,4.80
2019-02-10T13:09:12.868Z,4.47
2019-02-10T13:11:42.672Z,4.87
2019-02-10T13:14:11.912Z,4.50
2019-02-10T13:16:41.164Z,5.00
2019-02-10T13:19:10.404Z,4.67
2019-02-10T13:21:42.289Z,5.50
2019-02-10T13:24:11.510Z,4.73
2019-02-10T13:26:41.122Z,4.40
2019-02-10T13:29:10.414Z,4.47
2019-02-10T13:31:41.407Z,4.30
2019-02-10T13:34:12.046Z,4.23
2019-02-10T13:36:42.058Z,4.50
2019-02-10T13:39:12.579Z,4.50
2019-02-10T13:41:40.473Z,4.00
2019-02-10T13:44:10.472Z,4.40
2019-02-10T13:46:39.747Z,3.90
2019-02-10T13:49:09.371Z,4.00
2019-02-10T13:51:40.025Z,4.07
2019-02-10T13:54:09.986Z,4.47
2019-02-10T13:56:39.291Z,4.50
2019-02-10T13:59:09.663Z,4.30
2019-02-10T14:01:38.882Z,4.50
2019-02-10T14:04:08.118Z,3.90
2019-02-10T14:06:38.815Z,3.83
2019-02-10T14:09:08.030Z,4.30
2019-02-10T14:11:37.597Z,4.10
2019-02-10T14:14:06.821Z,4.30
2019-02-10T14:16:36.447Z,3.90
2019-02-10T14:19:05.983Z,4.30
2019-02-10T14:21:37.912Z,4.27
2019-02-10T14:24:08.049Z,3.80
2019-02-10T14:26:37.856Z,4.00
2019-02-10T14:29:07.450Z,3.70
2019-02-10T14:31:36.669Z,4.07
2019-02-10T14:34:07.785Z,4.00
2019-02-10T14:36:37.867Z,3.80
2019-02-10T14:39:07.126Z,4.20
2019-02-10T14:41:36.345Z,3.80
2019-02-10T14:44:08.233Z,4.47
2019-02-10T14:46:38.351Z,21.50
2019-02-10T14:49:07.584Z,4.10
2019-02-10T14:51:37.430Z,4.50
2019-02-10T14:54:06.857Z,6.57
2019-02-10T14:56:36.420Z,5.43
2019-02-10T14:59:07.166Z,3.80
2019-02-10T15:01:36.849Z,4.63
2019-02-10T15:04:06.197Z,4.20
2019-02-10T15:06:35.410Z,4.10
2019-02-10T15:09:15.035Z,4.20
2019-02-10T15:11:44.837Z,4.33
2019-02-10T15:14:16.608Z,4.10
2019-02-10T15:16:46.126Z,4.60
2019-02-10T15:19:16.609Z,4.67
2019-02-10T15:21:48.414Z,5.23
2019-02-10T15:24:17.654Z,4.67
2019-02-10T15:26:49.213Z,10.67
2019-02-10T15:29:19.562Z,5.63
2019-02-10T15:31:48.833Z,4.50
2019-02-10T15:34:18.487Z,7.20
2019-02-10T15:36:47.766Z,5.20
2019-02-10T15:39:17.660Z,4.83
2019-02-10T15:41:46.906Z,4.67
2019-02-10T15:44:16.993Z,4.83
2019-02-10T15:46:46.216Z,4.70
2019-02-10T15:49:16.993Z,4.50
2019-02-10T15:51:46.237Z,5.60
2019-02-10T15:54:15.461Z,4.40
2019-02-10T15:56:44.700Z,4.80
2019-02-10T15:59:16.345Z,4.97
2019-02-10T16:01:45.572Z,4.73
2019-02-10T16:04:14.817Z,4.80
2019-02-10T16:06:46.732Z,4.57
2019-02-10T16:09:16.145Z,5.23
2019-02-10T16:11:45.361Z,5.23
2019-02-10T16:14:14.617Z,4.93
2019-02-10T16:16:43.857Z,4.70
2019-02-10T16:19:13.279Z,4.83
2019-02-10T16:21:45.344Z,5.23
2019-02-10T16:24:16.857Z,7.07
2019-02-10T16:26:46.379Z,7.87
2019-02-10T16:29:17.629Z,7.50
2019-02-10T16:31:46.861Z,6.30
2019-02-10T16:34:16.132Z,6.63
2019-02-10T16:36:48.727Z,6.87
2019-02-10T16:39:18.305Z,6.30
2019-02-10T16:41:47.842Z,6.33
2019-02-10T16:44:17.104Z,5.90
2019-02-10T16:46:46.316Z,7.33
2019-02-10T16:49:16.642Z,7.17
2019-02-10T16:51:46.203Z,6.83
2019-02-10T16:54:15.451Z,8.93
2019-02-10T16:56:46.102Z,8.87
2019-02-10T16:59:16.490Z,9.60
2019-02-10T17:01:45.736Z,10.30
2019-02-10T17:04:15.559Z,10.00
2019-02-10T17:06:44.787Z,13.53
2019-02-10T17:09:14.040Z,13.57
2019-02-10T17:11:44.787Z,13.93
2019-02-10T17:14:17.352Z,13.13
2019-02-10T17:16:47.997Z,11.50
2019-02-10T17:19:17.237Z,13.00
2019-02-10T17:21:49.019Z,12.43
2019-02-10T17:24:18.287Z,12.30
2019-02-10T17:26:47.513Z,9.87
2019-02-10T17:29:16.753Z,8.33
2019-02-10T17:31:45.997Z,9.20
2019-02-10T17:34:16.755Z,10.73
2019-02-10T17:36:45.974Z,8.70
2019-02-10T17:39:20.141Z,9.00
2019-02-10T17:41:50.984Z,9.60
2019-02-10T17:44:20.606Z,8.37
2019-02-10T17:46:52.959Z,9.43
2019-02-10T17:49:23.622Z,9.27
2019-02-10T17:51:53.215Z,10.17
2019-02-10T17:54:22.432Z,9.90
2019-02-10T17:56:51.698Z,11.20
2019-02-10T17:59:21.193Z,12.03
2019-02-10T18:01:50.429Z,16.53
2019-02-10T18:04:21.945Z,18.10
2019-02-10T18:06:51.200Z,15.97
2019-02-10T18:09:21.671Z,15.20
2019-02-10T18:11:50.915Z,14.80
2019-02-10T18:14:37.765Z,12.77
2019-02-10T18:17:27.231Z,12.77
2019-02-10T18:20:11.056Z,12.57
2019-02-10T18:22:59.230Z,16.83
2019-02-10T18:25:35.753Z,10.70
2019-02-10T18:28:32.264Z,10.60
2019-02-10T18:31:28.066Z,10.47
2019-02-10T18:34:10.127Z,9.60
2019-02-10T18:37:10.386Z,9.10
2019-02-10T18:39:56.235Z,6.60
2019-02-10T18:42:47.536Z,3.77
2019-02-10T18:45:36.285Z,3.33
2019-02-10T18:48:24.353Z,2.77
2019-02-10T18:51:04.883Z,2.70
2019-02-10T18:53:52.080Z,3.40
2019-02-10T18:56:33.137Z,3.20
2019-02-10T18:59:23.451Z,4.30
2019-02-10T19:02:01.579Z,5.17
2019-02-10T19:04:49.407Z,3.50
2019-02-10T19:07:52.616Z,1.80
2019-02-10T19:10:43.853Z,1.83
2019-02-10T19:13:38.412Z,2.30
2019-02-10T19:16:32.702Z,4.10
2019-02-10T19:19:32.787Z,7.60
2019-02-10T19:22:27.928Z,6.27
2019-02-10T19:25:24.646Z,3.93
2019-02-10T19:28:12.155Z,5.77
2019-02-10T19:30:50.735Z,2.13
2019-02-10T19:33:38.383Z,2.17
2019-02-10T19:36:22.917Z,1.80
2019-02-10T19:39:08.486Z,1.27
2019-02-10T19:41:43.621Z,1.17
2019-02-10T19:44:43.788Z,1.00
2019-02-10T19:47:30.985Z,1.20
2019-02-10T19:50:39.660Z,1.20
2019-02-10T19:53:19.864Z,1.20
2019-02-10T19:56:08.083Z,5.70
2019-02-10T19:58:59.154Z,4.93
2019-02-10T20:01:59.472Z,3.77
2019-02-10T20:04:37.290Z,2.83
2019-02-10T20:07:28.297Z,2.97
2019-02-10T20:10:21.901Z,2.00
2019-02-10T20:13:13.428Z,0.90
2019-02-10T20:16:04.238Z,0.60
2019-02-10T20:18:52.452Z,0.40
2019-02-10T20:21:43.404Z,0.20
2019-02-10T20:24:30.152Z,0.30
2019-02-10T20:27:33.437Z,0.30
2019-02-10T20:30:20.336Z,0.20
2019-02-10T20:33:08.570Z,0.20
2019-02-10T20:35:57.750Z,0.40
2019-02-10T20:38:35.087Z,0.30
2019-02-10T20:41:24.298Z,0.20
2019-02-10T20:44:14.104Z,0.10
2019-02-10T20:47:02.852Z,0.17
2019-02-10T20:49:47.896Z,0.20
2019-02-10T20:52:26.442Z,0.20
2019-02-10T20:55:15.034Z,0.10
2019-02-10T20:58:09.312Z,0.20
2019-02-10T21:01:06.390Z,0.20
2019-02-10T21:03:54.579Z,0.30
2019-02-10T21:06:43.589Z,0.20
2019-02-10T21:09:22.290Z,0.40
2019-02-10T21:12:20.437Z,0.20
2019-02-10T21:15:04.338Z,0.20
2019-02-10T21:17:50.887Z,0.30
2019-02-10T21:20:36.890Z,0.30
2019-02-10T21:23:14.902Z,0.37
2019-02-10T21:26:01.637Z,0.30
2019-02-10T21:28:47.566Z,0.10
2019-02-10T21:31:34.851Z,0.40
2019-02-10T21:34:10.029Z,0.50
2019-02-10T21:36:58.251Z,0.50
2019-02-10T21:39:48.088Z,0.30
2019-02-10T21:42:36.276Z,0.30
2019-02-10T21:45:42.697Z,0.57
2019-02-10T21:48:36.942Z,0.47
2019-02-10T21:51:06.622Z,0.50
2019-02-10T21:53:36.562Z,0.70
2019-02-10T21:56:06.132Z,0.63
2019-02-10T21:58:35.970Z,0.60
2019-02-10T22:01:10.249Z,0.50
2019-02-10T22:03:40.073Z,0.30
2019-02-10T22:06:10.904Z,0.40
2019-02-10T22:08:42.504Z,0.67
2019-02-10T22:11:12.351Z,0.57
2019-02-10T22:13:46.074Z,0.90
2019-02-10T22:16:16.193Z,0.70
2019-02-10T22:18:45.409Z,0.70
2019-02-10T22:21:15.027Z,0.70
2019-02-10T22:23:44.301Z,0.80
2019-02-10T22:26:13.553Z,0.80
2019-02-10T22:28:42.845Z,0.70
2019-02-10T22:31:18.646Z,0.70
2019-02-10T22:33:43.053Z,0.60
2019-02-10T22:36:12.265Z,0.53
2019-02-10T22:38:41.520Z,0.53
2019-02-10T22:41:14.133Z,0.60
2019-02-10T22:43:43.859Z,0.50
2019-02-10T22:46:13.073Z,0.80
2019-02-10T22:48:44.345Z,0.70
2019-02-10T22:51:13.969Z,0.60
2019-02-10T22:53:43.776Z,0.70
2019-02-10T22:56:13.388Z,0.70
2019-02-10T22:58:42.661Z,0.70
2019-02-10T23:01:11.868Z,0.50
2019-02-10T23:03:41.132Z,0.60
2019-02-10T23:06:10.348Z,0.40
2019-02-10T23:08:40.701Z,0.37
2019-02-10T23:11:09.946Z,0.50
2019-02-10T23:13:39.466Z,0.50
2019-02-10T23:16:08.665Z,0.33
2019-02-10T23:18:37.929Z,0.50
2019-02-10T23:21:07.532Z,0.30
2019-02-10T23:23:36.763Z,0.30
2019-02-10T23:26:06.716Z,0.37
2019-02-10T23:28:36.277Z,0.30
2019-02-10T23:31:07.948Z,0.20
2019-02-10T23:33:39.498Z,0.30
2019-02-10T23:36:09.890Z,0.20
2019-02-10T23:38:39.123Z,0.27
2019-02-10T23:41:15.772Z,0.20
2019-02-10T23:43:45.018Z,0.40
2019-02-10T23:46:14.260Z,0.20
2019-02-10T23:48:43.889Z,0.33
2019-02-10T23:51:13.130Z,0.20
2019-02-10T23:53:42.961Z,0.30
2019-02-10T23:56:12.181Z,0.40
2019-02-10T23:58:42.585Z,0.40
